This demonstration page uses our WeatherBlox Daily Observations layout. Learn more.

Left ArrowRight Arrow

Hourly Observations for August 19, 2020

Temp ( °F °C ) Dew Point ( °F °C ) Humidity (%) Winds ( mph kmh ) Pressure ( in mb ) Visibility ( mi km ) Precip ( " mm )
12:53 am 00:53 Clear 64 17.8 58 14.4 81 81 N N/A 30.01 1016 10 16.0934 N/A
1:53 am 01:53 Cloudy 60 15.6 59 15 96 96 N N/A 30.01 1016 10 16.0934 N/A
2:53 am 02:53 Clear 58 14.4 57 13.9 97 97 N N/A 30.02 1017 10 16.0934 N/A
3:53 am 03:53 Mostly Clear 56 13.3 55 12.8 97 97 N N/A 30.01 1016 10 16.0934 N/A
4:53 am 04:53 Clear 56 13.3 55 12.8 97 97 N N/A 30 1016 10 16.0934 N/A
5:53 am 05:53 Clear 54 12.2 54 12.2 100 100 N N/A 30.01 1016 10 16.0934 N/A
6:53 am 06:53 Clear 55 12.8 53 11.7 93 93 N N/A 30.03 1017 10 16.0934 N/A
7:53 am 07:53 Sunny 57 13.9 56 13.3 96 96 N N/A 30.05 1018 10 16.0934 N/A
8:53 am 08:53 Sunny 64 17.8 56 13.3 75 75 N N/A 30.07 1018 10 16.0934 N/A
9:53 am 09:53 Sunny 69 20.6 57 13.9 66 66 NNE 5 7 30.07 1018 10 16.0934 N/A
10:53 am 10:53 Sunny 71 21.7 58 14.4 63 63 NE 9 15 30.08 1019 10 16.0934 N/A
11:53 am 11:53 Sunny 75 23.9 58 14.4 55 55 ENE 12 19 30.07 1018 10 16.0934 N/A
12:53 pm 12:53 Sunny N/A N/A N/A E 8 13 N/A 10 16.0934 N/A
1:53 pm 13:53 Mostly Sunny N/A N/A N/A NNE 8 13 N/A 10 16.0934 N/A
2:53 pm 14:53 Mostly Cloudy N/A N/A N/A VRB 7 11 N/A 10 16.0934 N/A
3:53 pm 15:53 Partly Cloudy N/A N/A N/A ENE 8 13 N/A 10 16.0934 N/A
4:53 pm 16:53 Mostly Cloudy N/A N/A N/A N N/A N/A 10 16.0934 N/A
5:53 pm 17:53 Mostly Sunny N/A N/A N/A NNE 6 9 N/A 10 16.0934 N/A
6:53 pm 18:53 Sunny N/A N/A N/A E 5 7 N/A 10 16.0934 N/A
7:53 pm 19:53 Sunny 70 21.1 59 15 68 68 E 3 6 30.01 1016 10 16.0934 N/A
8:53 pm 20:53 Mostly Cloudy 64 17.8 60 15.6 87 87 N N/A 30.03 1017 10 16.0934 N/A
9:53 pm 21:53 Clear 60 15.6 58 14.4 93 93 N N/A 30.04 1017 10 16.0934 N/A
10:53 pm 22:53 Clear 59 15 57 13.9 93 93 N N/A 30.04 1017 10 16.0934 N/A
11:53 pm 23:53 Clear 58 14.4 57 13.9 97 97 E 3 6 30.06 1018 10 16.0934 N/A

Powered by AerisWeather